Terminal Aerodrome Forecast
Issued by NWS

Home | Current Version | Previous Version | Text Only | Print | Product List | Glossary On
Versions: 1 2 3 4 5 6 7 8 9 10 11 12 13 14 15
000
FTUS42 TJSJ 211135
TAFJMZ
TAF
TJMZ 211135Z 2112/2212 19025G40KT 4SM SHRA VCTS BKN015CB OVC050
     FM211800 17020G35KT 5SM SHRA BKN015 OVC030
     FM220000 15010G20KT P6SM VCTS BKN025CB OVC150
      AMD NOT SKED=

USA.gov is the U.S. government's official web portal to all federal, state and local government web resources and services.